sensor_id;sensor_type;location;lat;lon;timestamp;P1;durP1;ratioP1;P2;durP2;ratioP2
1779;SDS011;10019;46.670;14.260;2023-03-01T00:01:18;13.20;;;9.20;;
1779;SDS011;10019;46.670;14.260;2023-03-01T00:03:51;16.33;;;10.07;;
1779;SDS011;10019;46.670;14.260;2023-03-01T00:06:23;16.03;;;11.13;;
1779;SDS011;10019;46.670;14.260;2023-03-01T00:08:56;18.27;;;11.37;;
1779;SDS011;10019;46.670;14.260;2023-03-01T00:11:29;15.10;;;11.53;;
1779;SDS011;10019;46.670;14.260;2023-03-01T00:14:03;18.77;;;10.40;;
1779;SDS011;10019;46.670;14.260;2023-03-01T00:16:37;15.37;;;11.20;;
1779;SDS011;10019;46.670;14.260;2023-03-01T00:19:11;21.87;;;10.87;;
1779;SDS011;10019;46.670;14.260;2023-03-01T00:21:44;15.50;;;10.10;;
1779;SDS011;10019;46.670;14.260;2023-03-01T00:24:16;20.70;;;11.30;;
1779;SDS011;10019;46.670;14.260;2023-03-01T00:26:47;15.63;;;10.20;;
1779;SDS011;10019;46.670;14.260;2023-03-01T00:29:21;17.67;;;11.13;;
1779;SDS011;10019;46.670;14.260;2023-03-01T00:31:52;15.43;;;10.50;;
1779;SDS011;10019;46.670;14.260;2023-03-01T00:34:24;13.83;;;9.50;;
1779;SDS011;10019;46.670;14.260;2023-03-01T00:36:56;22.80;;;11.60;;
1779;SDS011;10019;46.670;14.260;2023-03-01T00:39:35;17.67;;;11.60;;
1779;SDS011;10019;46.670;14.260;2023-03-01T00:42:06;17.70;;;11.77;;
1779;SDS011;10019;46.670;14.260;2023-03-01T00:44:39;19.10;;;11.40;;
1779;SDS011;10019;46.670;14.260;2023-03-01T00:47:11;22.37;;;13.40;;
1779;SDS011;10019;46.670;14.260;2023-03-01T00:49:43;17.13;;;11.10;;
1779;SDS011;10019;46.670;14.260;2023-03-01T00:52:15;20.23;;;13.00;;
1779;SDS011;10019;46.670;14.260;2023-03-01T00:54:47;21.30;;;12.20;;
1779;SDS011;10019;46.670;14.260;2023-03-01T00:57:18;20.53;;;12.00;;
1779;SDS011;10019;46.670;14.260;2023-03-01T00:59:52;15.43;;;10.70;;
1779;SDS011;10019;46.670;14.260;2023-03-01T01:02:23;14.50;;;11.10;;
1779;SDS011;10019;46.670;14.260;2023-03-01T01:04:55;18.27;;;11.00;;
1779;SDS011;10019;46.670;14.260;2023-03-01T01:07:27;18.00;;;11.27;;
1779;SDS011;10019;46.670;14.260;2023-03-01T01:09:58;18.43;;;11.37;;
1779;SDS011;10019;46.670;14.260;2023-03-01T01:12:30;13.80;;;9.80;;
1779;SDS011;10019;46.670;14.260;2023-03-01T01:15:04;16.40;;;10.93;;
1779;SDS011;10019;46.670;14.260;2023-03-01T01:17:36;15.47;;;9.77;;
1779;SDS011;10019;46.670;14.260;2023-03-01T01:20:08;17.73;;;10.87;;
1779;SDS011;10019;46.670;14.260;2023-03-01T01:22:40;16.00;;;10.80;;
1779;SDS011;10019;46.670;14.260;2023-03-01T01:25:12;18.70;;;10.30;;
1779;SDS011;10019;46.670;14.260;2023-03-01T01:27:44;16.30;;;10.13;;
1779;SDS011;10019;46.670;14.260;2023-03-01T01:30:17;14.40;;;10.47;;
1779;SDS011;10019;46.670;14.260;2023-03-01T01:32:49;17.93;;;10.93;;
1779;SDS011;10019;46.670;14.260;2023-03-01T01:35:21;16.97;;;9.53;;
1779;SDS011;10019;46.670;14.260;2023-03-01T01:37:52;15.67;;;10.07;;
1779;SDS011;10019;46.670;14.260;2023-03-01T01:40:24;18.37;;;10.40;;
1779;SDS011;10019;46.670;14.260;2023-03-01T01:42:56;17.37;;;11.70;;
1779;SDS011;10019;46.670;14.260;2023-03-01T01:45:31;17.23;;;9.83;;
1779;SDS011;10019;46.670;14.260;2023-03-01T01:48:04;15.77;;;11.03;;
1779;SDS011;10019;46.670;14.260;2023-03-01T01:50:38;19.33;;;10.70;;
1779;SDS011;10019;46.670;14.260;2023-03-01T01:53:11;18.30;;;10.73;;
1779;SDS011;10019;46.670;14.260;2023-03-01T01:55:46;14.53;;;9.33;;
1779;SDS011;10019;46.670;14.260;2023-03-01T01:58:19;18.27;;;12.07;;
1779;SDS011;10019;46.670;14.260;2023-03-01T02:00:53;15.27;;;10.03;;
1779;SDS011;10019;46.670;14.260;2023-03-01T02:03:26;17.60;;;10.77;;
1779;SDS011;10019;46.670;14.260;2023-03-01T02:06:03;17.30;;;10.07;;
1779;SDS011;10019;46.670;14.260;2023-03-01T02:08:38;22.30;;;11.70;;
1779;SDS011;10019;46.670;14.260;2023-03-01T02:11:11;17.90;;;10.43;;
1779;SDS011;10019;46.670;14.260;2023-03-01T02:13:44;29.60;;;12.97;;
1779;SDS011;10019;46.670;14.260;2023-03-01T02:16:19;16.23;;;11.10;;
1779;SDS011;10019;46.670;14.260;2023-03-01T02:18:51;15.77;;;10.83;;
1779;SDS011;10019;46.670;14.260;2023-03-01T02:21:28;16.43;;;10.10;;
1779;SDS011;10019;46.670;14.260;2023-03-01T02:24:05;17.93;;;11.53;;
1779;SDS011;10019;46.670;14.260;2023-03-01T02:26:46;21.03;;;11.30;;
1779;SDS011;10019;46.670;14.260;2023-03-01T02:29:21;16.47;;;10.37;;
1779;SDS011;10019;46.670;14.260;2023-03-01T02:31:54;19.20;;;10.70;;
1779;SDS011;10019;46.670;14.260;2023-03-01T02:34:27;15.50;;;10.00;;
1779;SDS011;10019;46.670;14.260;2023-03-01T02:37:01;22.50;;;10.93;;
1779;SDS011;10019;46.670;14.260;2023-03-01T02:39:36;22.00;;;11.90;;
1779;SDS011;10019;46.670;14.260;2023-03-01T02:42:13;22.33;;;11.03;;
1779;SDS011;10019;46.670;14.260;2023-03-01T02:44:49;17.60;;;11.83;;
1779;SDS011;10019;46.670;14.260;2023-03-01T02:47:21;12.43;;;9.50;;
1779;SDS011;10019;46.670;14.260;2023-03-01T02:49:53;14.50;;;10.20;;
1779;SDS011;10019;46.670;14.260;2023-03-01T02:52:34;15.70;;;9.63;;
1779;SDS011;10019;46.670;14.260;2023-03-01T02:55:11;14.03;;;9.80;;
1779;SDS011;10019;46.670;14.260;2023-03-01T02:57:44;15.73;;;10.30;;
1779;SDS011;10019;46.670;14.260;2023-03-01T03:00:23;17.80;;;10.47;;
1779;SDS011;10019;46.670;14.260;2023-03-01T03:02:57;14.10;;;9.60;;
1779;SDS011;10019;46.670;14.260;2023-03-01T03:05:30;16.93;;;9.77;;
1779;SDS011;10019;46.670;14.260;2023-03-01T03:08:02;16.17;;;9.97;;
1779;SDS011;10019;46.670;14.260;2023-03-01T03:10:36;15.30;;;10.97;;
1779;SDS011;10019;46.670;14.260;2023-03-01T03:13:10;19.20;;;11.47;;
1779;SDS011;10019;46.670;14.260;2023-03-01T03:15:44;20.23;;;11.47;;
1779;SDS011;10019;46.670;14.260;2023-03-01T03:18:16;16.23;;;11.23;;
1779;SDS011;10019;46.670;14.260;2023-03-01T03:20:48;15.43;;;9.50;;
1779;SDS011;10019;46.670;14.260;2023-03-01T03:23:22;15.77;;;10.30;;
1779;SDS011;10019;46.670;14.260;2023-03-01T03:25:54;18.83;;;10.40;;
1779;SDS011;10019;46.670;14.260;2023-03-01T03:28:26;17.90;;;12.47;;
1779;SDS011;10019;46.670;14.260;2023-03-01T03:30:59;18.77;;;10.90;;
1779;SDS011;10019;46.670;14.260;2023-03-01T03:33:33;17.23;;;11.60;;
1779;SDS011;10019;46.670;14.260;2023-03-01T03:36:05;17.13;;;10.50;;
1779;SDS011;10019;46.670;14.260;2023-03-01T03:38:43;19.80;;;11.80;;
1779;SDS011;10019;46.670;14.260;2023-03-01T03:41:15;15.40;;;11.43;;
1779;SDS011;10019;46.670;14.260;2023-03-01T03:43:48;17.33;;;10.70;;
1779;SDS011;10019;46.670;14.260;2023-03-01T03:46:21;16.60;;;11.00;;
1779;SDS011;10019;46.670;14.260;2023-03-01T03:48:53;22.77;;;12.83;;
1779;SDS011;10019;46.670;14.260;2023-03-01T03:51:24;37.97;;;18.43;;
1779;SDS011;10019;46.670;14.260;2023-03-01T03:53:56;19.13;;;13.83;;
1779;SDS011;10019;46.670;14.260;2023-03-01T03:56:27;18.10;;;12.17;;
1779;SDS011;10019;46.670;14.260;2023-03-01T03:58:59;19.10;;;12.37;;
1779;SDS011;10019;46.670;14.260;2023-03-01T04:01:34;21.43;;;12.23;;
1779;SDS011;10019;46.670;14.260;2023-03-01T04:04:05;23.97;;;12.40;;
1779;SDS011;10019;46.670;14.260;2023-03-01T04:06:37;18.60;;;11.00;;
1779;SDS011;10019;46.670;14.260;2023-03-01T04:09:09;21.50;;;11.70;;
1779;SDS011;10019;46.670;14.260;2023-03-01T04:11:41;15.43;;;10.90;;
1779;SDS011;10019;46.670;14.260;2023-03-01T04:14:12;17.40;;;11.00;;
1779;SDS011;10019;46.670;14.260;2023-03-01T04:16:45;15.93;;;10.13;;
1779;SDS011;10019;46.670;14.260;2023-03-01T04:19:17;15.83;;;11.00;;
1779;SDS011;10019;46.670;14.260;2023-03-01T04:21:49;16.20;;;12.17;;
1779;SDS011;10019;46.670;14.260;2023-03-01T04:24:20;18.37;;;11.80;;
1779;SDS011;10019;46.670;14.260;2023-03-01T04:26:52;18.60;;;12.40;;
1779;SDS011;10019;46.670;14.260;2023-03-01T04:29:24;18.00;;;12.37;;
1779;SDS011;10019;46.670;14.260;2023-03-01T04:31:57;18.20;;;12.13;;
1779;SDS011;10019;46.670;14.260;2023-03-01T04:34:29;17.20;;;11.87;;
1779;SDS011;10019;46.670;14.260;2023-03-01T04:37:01;17.60;;;11.13;;
1779;SDS011;10019;46.670;14.260;2023-03-01T04:39:32;18.47;;;12.27;;
1779;SDS011;10019;46.670;14.260;2023-03-01T04:42:15;17.67;;;11.70;;
1779;SDS011;10019;46.670;14.260;2023-03-01T04:44:47;22.90;;;12.20;;
1779;SDS011;10019;46.670;14.260;2023-03-01T04:47:22;17.13;;;11.70;;
1779;SDS011;10019;46.670;14.260;2023-03-01T04:49:54;26.20;;;11.60;;
1779;SDS011;10019;46.670;14.260;2023-03-01T04:52:25;22.13;;;11.33;;
1779;SDS011;10019;46.670;14.260;2023-03-01T04:54:57;16.87;;;10.53;;
1779;SDS011;10019;46.670;14.260;2023-03-01T04:57:29;15.40;;;11.23;;
1779;SDS011;10019;46.670;14.260;2023-03-01T05:00:01;18.00;;;12.03;;
1779;SDS011;10019;46.670;14.260;2023-03-01T05:02:51;20.17;;;11.37;;
1779;SDS011;10019;46.670;14.260;2023-03-01T05:05:25;17.07;;;10.27;;
1779;SDS011;10019;46.670;14.260;2023-03-01T05:07:59;17.63;;;11.50;;
1779;SDS011;10019;46.670;14.260;2023-03-01T05:10:31;18.17;;;11.47;;
1779;SDS011;10019;46.670;14.260;2023-03-01T05:13:05;15.87;;;10.60;;
1779;SDS011;10019;46.670;14.260;2023-03-01T05:15:37;17.07;;;10.30;;
1779;SDS011;10019;46.670;14.260;2023-03-01T05:18:10;20.77;;;11.60;;
1779;SDS011;10019;46.670;14.260;2023-03-01T05:20:42;16.03;;;10.80;;
1779;SDS011;10019;46.670;14.260;2023-03-01T05:23:14;22.20;;;12.77;;
1779;SDS011;10019;46.670;14.260;2023-03-01T05:25:46;13.60;;;10.60;;
1779;SDS011;10019;46.670;14.260;2023-03-01T05:28:18;25.43;;;13.20;;
1779;SDS011;10019;46.670;14.260;2023-03-01T05:30:50;20.40;;;12.50;;
1779;SDS011;10019;46.670;14.260;2023-03-01T05:33:24;24.47;;;12.00;;
1779;SDS011;10019;46.670;14.260;2023-03-01T05:35:59;20.33;;;11.97;;
1779;SDS011;10019;46.670;14.260;2023-03-01T05:38:31;19.37;;;10.50;;
1779;SDS011;10019;46.670;14.260;2023-03-01T05:41:03;17.50;;;10.20;;
1779;SDS011;10019;46.670;14.260;2023-03-01T05:43:35;20.03;;;12.70;;
1779;SDS011;10019;46.670;14.260;2023-03-01T05:46:06;17.20;;;10.80;;
1779;SDS011;10019;46.670;14.260;2023-03-01T05:48:43;15.73;;;10.37;;
1779;SDS011;10019;46.670;14.260;2023-03-01T05:51:15;17.40;;;11.33;;
1779;SDS011;10019;46.670;14.260;2023-03-01T05:53:47;18.10;;;10.50;;
1779;SDS011;10019;46.670;14.260;2023-03-01T05:56:19;14.93;;;9.77;;
1779;SDS011;10019;46.670;14.260;2023-03-01T05:58:52;18.10;;;11.00;;
1779;SDS011;10019;46.670;14.260;2023-03-01T06:01:24;19.63;;;12.13;;
1779;SDS011;10019;46.670;14.260;2023-03-01T06:03:57;18.47;;;11.30;;
1779;SDS011;10019;46.670;14.260;2023-03-01T06:06:29;17.60;;;11.23;;
1779;SDS011;10019;46.670;14.260;2023-03-01T06:09:01;20.77;;;11.50;;
1779;SDS011;10019;46.670;14.260;2023-03-01T06:11:33;21.00;;;12.10;;
1779;SDS011;10019;46.670;14.260;2023-03-01T06:14:05;15.93;;;11.53;;
1779;SDS011;10019;46.670;14.260;2023-03-01T06:16:37;17.43;;;11.40;;
1779;SDS011;10019;46.670;14.260;2023-03-01T06:19:11;23.00;;;12.23;;
1779;SDS011;10019;46.670;14.260;2023-03-01T06:21:42;16.77;;;11.20;;
1779;SDS011;10019;46.670;14.260;2023-03-01T06:24:14;19.53;;;11.87;;
1779;SDS011;10019;46.670;14.260;2023-03-01T06:26:46;23.87;;;13.53;;
1779;SDS011;10019;46.670;14.260;2023-03-01T06:29:17;21.20;;;14.07;;
1779;SDS011;10019;46.670;14.260;2023-03-01T06:31:49;23.30;;;14.60;;
1779;SDS011;10019;46.670;14.260;2023-03-01T06:34:22;30.23;;;13.60;;
1779;SDS011;10019;46.670;14.260;2023-03-01T06:36:54;24.77;;;14.53;;
1779;SDS011;10019;46.670;14.260;2023-03-01T06:39:27;18.60;;;13.70;;
1779;SDS011;10019;46.670;14.260;2023-03-01T06:41:59;20.60;;;13.57;;
1779;SDS011;10019;46.670;14.260;2023-03-01T06:44:31;22.00;;;12.90;;
1779;SDS011;10019;46.670;14.260;2023-03-01T06:47:02;22.37;;;14.17;;
1779;SDS011;10019;46.670;14.260;2023-03-01T06:49:36;21.17;;;12.70;;
1779;SDS011;10019;46.670;14.260;2023-03-01T06:52:07;21.57;;;13.70;;
1779;SDS011;10019;46.670;14.260;2023-03-01T06:54:39;19.00;;;12.23;;
1779;SDS011;10019;46.670;14.260;2023-03-01T06:57:11;23.60;;;13.20;;
1779;SDS011;10019;46.670;14.260;2023-03-01T06:59:42;18.50;;;12.03;;
1779;SDS011;10019;46.670;14.260;2023-03-01T07:02:15;17.30;;;11.83;;
1779;SDS011;10019;46.670;14.260;2023-03-01T07:04:48;19.63;;;11.83;;
1779;SDS011;10019;46.670;14.260;2023-03-01T07:07:20;20.43;;;12.43;;
1779;SDS011;10019;46.670;14.260;2023-03-01T07:09:52;20.47;;;12.23;;
1779;SDS011;10019;46.670;14.260;2023-03-01T07:12:24;18.60;;;11.30;;
1779;SDS011;10019;46.670;14.260;2023-03-01T07:14:56;20.10;;;12.30;;
1779;SDS011;10019;46.670;14.260;2023-03-01T07:17:27;21.07;;;12.63;;
1779;SDS011;10019;46.670;14.260;2023-03-01T07:20:00;20.17;;;12.80;;
1779;SDS011;10019;46.670;14.260;2023-03-01T07:22:32;17.43;;;12.17;;
1779;SDS011;10019;46.670;14.260;2023-03-01T07:25:04;22.03;;;12.20;;
1779;SDS011;10019;46.670;14.260;2023-03-01T07:27:36;23.83;;;12.10;;
1779;SDS011;10019;46.670;14.260;2023-03-01T07:30:08;18.97;;;12.57;;
1779;SDS011;10019;46.670;14.260;2023-03-01T07:32:41;19.07;;;11.87;;
1779;SDS011;10019;46.670;14.260;2023-03-01T07:35:14;24.50;;;14.80;;
1779;SDS011;10019;46.670;14.260;2023-03-01T07:37:45;19.10;;;12.50;;
1779;SDS011;10019;46.670;14.260;2023-03-01T07:40:17;20.43;;;12.43;;
1779;SDS011;10019;46.670;14.260;2023-03-01T07:42:53;21.63;;;13.50;;
1779;SDS011;10019;46.670;14.260;2023-03-01T07:45:26;19.57;;;11.70;;
1779;SDS011;10019;46.670;14.260;2023-03-01T07:47:58;18.80;;;12.53;;
1779;SDS011;10019;46.670;14.260;2023-03-01T07:50:31;22.00;;;13.93;;
1779;SDS011;10019;46.670;14.260;2023-03-01T07:53:03;21.93;;;14.03;;
1779;SDS011;10019;46.670;14.260;2023-03-01T07:55:35;23.07;;;14.90;;
1779;SDS011;10019;46.670;14.260;2023-03-01T07:58:06;26.50;;;15.23;;
1779;SDS011;10019;46.670;14.260;2023-03-01T08:00:38;26.80;;;15.90;;
1779;SDS011;10019;46.670;14.260;2023-03-01T08:03:10;22.03;;;13.60;;
1779;SDS011;10019;46.670;14.260;2023-03-01T08:05:43;28.37;;;15.83;;
1779;SDS011;10019;46.670;14.260;2023-03-01T08:08:14;24.23;;;13.47;;
1779;SDS011;10019;46.670;14.260;2023-03-01T08:10:46;20.80;;;12.50;;
1779;SDS011;10019;46.670;14.260;2023-03-01T08:13:17;26.33;;;12.93;;
1779;SDS011;10019;46.670;14.260;2023-03-01T08:15:52;22.77;;;13.70;;
1779;SDS011;10019;46.670;14.260;2023-03-01T08:18:24;23.13;;;12.33;;
1779;SDS011;10019;46.670;14.260;2023-03-01T08:21:02;26.00;;;13.63;;
1779;SDS011;10019;46.670;14.260;2023-03-01T08:23:34;24.20;;;12.30;;
1779;SDS011;10019;46.670;14.260;2023-03-01T08:26:06;24.20;;;12.57;;
1779;SDS011;10019;46.670;14.260;2023-03-01T08:28:39;21.57;;;13.07;;
1779;SDS011;10019;46.670;14.260;2023-03-01T08:31:15;21.90;;;12.30;;
1779;SDS011;10019;46.670;14.260;2023-03-01T08:33:49;21.37;;;12.20;;
1779;SDS011;10019;46.670;14.260;2023-03-01T08:36:27;28.17;;;14.63;;
1779;SDS011;10019;46.670;14.260;2023-03-01T08:39:00;17.00;;;11.90;;
1779;SDS011;10019;46.670;14.260;2023-03-01T08:41:32;18.10;;;12.63;;
1779;SDS011;10019;46.670;14.260;2023-03-01T08:44:04;21.93;;;13.60;;
1779;SDS011;10019;46.670;14.260;2023-03-01T08:46:36;21.17;;;13.47;;
1779;SDS011;10019;46.670;14.260;2023-03-01T08:49:10;20.10;;;11.30;;
1779;SDS011;10019;46.670;14.260;2023-03-01T08:51:45;18.67;;;11.97;;
1779;SDS011;10019;46.670;14.260;2023-03-01T08:54:17;24.90;;;13.40;;
1779;SDS011;10019;46.670;14.260;2023-03-01T08:56:50;21.43;;;12.70;;
1779;SDS011;10019;46.670;14.260;2023-03-01T08:59:21;19.23;;;12.63;;
1779;SDS011;10019;46.670;14.260;2023-03-01T09:01:53;23.80;;;13.87;;
1779;SDS011;10019;46.670;14.260;2023-03-01T09:04:25;22.23;;;13.80;;
1779;SDS011;10019;46.670;14.260;2023-03-01T09:06:58;26.83;;;13.90;;
1779;SDS011;10019;46.670;14.260;2023-03-01T09:09:30;28.13;;;14.03;;
1779;SDS011;10019;46.670;14.260;2023-03-01T09:12:02;17.33;;;11.60;;
1779;SDS011;10019;46.670;14.260;2023-03-01T09:14:33;20.60;;;12.83;;
1779;SDS011;10019;46.670;14.260;2023-03-01T09:17:07;18.47;;;12.57;;
1779;SDS011;10019;46.670;14.260;2023-03-01T09:19:39;21.03;;;13.80;;
1779;SDS011;10019;46.670;14.260;2023-03-01T09:22:12;21.13;;;12.90;;
1779;SDS011;10019;46.670;14.260;2023-03-01T09:24:43;24.37;;;13.83;;
1779;SDS011;10019;46.670;14.260;2023-03-01T09:27:15;19.60;;;13.57;;
1779;SDS011;10019;46.670;14.260;2023-03-01T09:29:48;20.93;;;12.43;;
1779;SDS011;10019;46.670;14.260;2023-03-01T09:32:20;28.50;;;14.27;;
1779;SDS011;10019;46.670;14.260;2023-03-01T09:34:52;22.43;;;14.43;;
1779;SDS011;10019;46.670;14.260;2023-03-01T09:37:36;25.17;;;14.47;;
1779;SDS011;10019;46.670;14.260;2023-03-01T09:40:11;19.77;;;13.13;;
1779;SDS011;10019;46.670;14.260;2023-03-01T09:42:47;19.67;;;11.73;;
1779;SDS011;10019;46.670;14.260;2023-03-01T09:45:27;20.13;;;13.23;;
1779;SDS011;10019;46.670;14.260;2023-03-01T09:48:01;21.33;;;12.50;;
1779;SDS011;10019;46.670;14.260;2023-03-01T09:50:34;20.73;;;12.67;;
1779;SDS011;10019;46.670;14.260;2023-03-01T09:53:09;20.57;;;14.00;;
1779;SDS011;10019;46.670;14.260;2023-03-01T09:55:44;25.40;;;15.17;;
1779;SDS011;10019;46.670;14.260;2023-03-01T09:58:25;20.37;;;13.07;;
1779;SDS011;10019;46.670;14.260;2023-03-01T10:01:02;23.87;;;13.77;;
1779;SDS011;10019;46.670;14.260;2023-03-01T10:03:39;19.83;;;13.30;;
1779;SDS011;10019;46.670;14.260;2023-03-01T10:06:15;21.00;;;13.57;;
1779;SDS011;10019;46.670;14.260;2023-03-01T10:08:55;24.90;;;15.07;;
1779;SDS011;10019;46.670;14.260;2023-03-01T10:11:30;26.60;;;14.67;;
1779;SDS011;10019;46.670;14.260;2023-03-01T10:14:03;21.40;;;14.07;;
1779;SDS011;10019;46.670;14.260;2023-03-01T10:16:38;26.47;;;14.80;;
1779;SDS011;10019;46.670;14.260;2023-03-01T10:19:22;19.70;;;12.80;;
1779;SDS011;10019;46.670;14.260;2023-03-01T10:21:56;22.03;;;14.30;;
1779;SDS011;10019;46.670;14.260;2023-03-01T10:24:34;22.23;;;13.90;;
1779;SDS011;10019;46.670;14.260;2023-03-01T10:27:07;22.67;;;13.60;;
1779;SDS011;10019;46.670;14.260;2023-03-01T10:29:43;28.83;;;14.73;;
1779;SDS011;10019;46.670;14.260;2023-03-01T10:32:18;23.90;;;13.53;;
1779;SDS011;10019;46.670;14.260;2023-03-01T10:34:51;23.63;;;14.70;;
1779;SDS011;10019;46.670;14.260;2023-03-01T10:37:23;29.13;;;17.27;;
1779;SDS011;10019;46.670;14.260;2023-03-01T10:40:00;26.90;;;14.60;;
1779;SDS011;10019;46.670;14.260;2023-03-01T10:42:38;21.27;;;13.13;;
1779;SDS011;10019;46.670;14.260;2023-03-01T10:45:15;23.33;;;13.97;;
1779;SDS011;10019;46.670;14.260;2023-03-01T10:47:48;22.60;;;13.60;;
1779;SDS011;10019;46.670;14.260;2023-03-01T10:50:35;24.00;;;14.30;;
1779;SDS011;10019;46.670;14.260;2023-03-01T10:53:16;26.10;;;14.63;;
1779;SDS011;10019;46.670;14.260;2023-03-01T10:56:01;25.40;;;14.27;;
1779;SDS011;10019;46.670;14.260;2023-03-01T10:58:35;32.93;;;18.40;;
1779;SDS011;10019;46.670;14.260;2023-03-01T11:04:10;21.73;;;13.37;;
1779;SDS011;10019;46.670;14.260;2023-03-01T11:06:43;22.87;;;14.17;;
1779;SDS011;10019;46.670;14.260;2023-03-01T11:09:15;22.20;;;13.77;;
1779;SDS011;10019;46.670;14.260;2023-03-01T11:11:53;21.73;;;14.90;;
1779;SDS011;10019;46.670;14.260;2023-03-01T11:14:26;24.23;;;14.70;;
1779;SDS011;10019;46.670;14.260;2023-03-01T11:16:59;22.43;;;13.73;;
1779;SDS011;10019;46.670;14.260;2023-03-01T11:19:32;28.70;;;20.43;;
1779;SDS011;10019;46.670;14.260;2023-03-01T11:22:05;24.13;;;13.87;;
1779;SDS011;10019;46.670;14.260;2023-03-01T11:24:40;22.83;;;13.70;;
1779;SDS011;10019;46.670;14.260;2023-03-01T11:27:17;22.57;;;13.30;;
1779;SDS011;10019;46.670;14.260;2023-03-01T11:29:52;22.93;;;13.83;;
1779;SDS011;10019;46.670;14.260;2023-03-01T11:32:26;22.43;;;13.67;;
1779;SDS011;10019;46.670;14.260;2023-03-01T11:35:00;26.07;;;14.10;;
1779;SDS011;10019;46.670;14.260;2023-03-01T11:37:35;19.23;;;12.27;;
1779;SDS011;10019;46.670;14.260;2023-03-01T11:40:13;23.83;;;13.90;;
1779;SDS011;10019;46.670;14.260;2023-03-01T11:42:55;22.77;;;14.80;;
1779;SDS011;10019;46.670;14.260;2023-03-01T11:45:32;23.60;;;14.90;;
1779;SDS011;10019;46.670;14.260;2023-03-01T11:51:05;22.33;;;14.20;;
1779;SDS011;10019;46.670;14.260;2023-03-01T11:53:50;23.57;;;14.50;;
1779;SDS011;10019;46.670;14.260;2023-03-01T11:56:31;32.50;;;21.03;;
1779;SDS011;10019;46.670;14.260;2023-03-01T12:02:19;50.13;;;25.20;;
1779;SDS011;10019;46.670;14.260;2023-03-01T12:08:09;28.00;;;15.07;;
1779;SDS011;10019;46.670;14.260;2023-03-01T12:10:45;31.60;;;19.00;;
1779;SDS011;10019;46.670;14.260;2023-03-01T12:13:23;36.97;;;19.90;;
1779;SDS011;10019;46.670;14.260;2023-03-01T12:16:13;53.57;;;27.70;;
1779;SDS011;10019;46.670;14.260;2023-03-01T12:18:54;25.93;;;14.13;;
1779;SDS011;10019;46.670;14.260;2023-03-01T12:21:47;28.30;;;19.37;;
1779;SDS011;10019;46.670;14.260;2023-03-01T12:24:32;22.27;;;14.37;;
1779;SDS011;10019;46.670;14.260;2023-03-01T12:27:23;25.63;;;15.20;;
1779;SDS011;10019;46.670;14.260;2023-03-01T12:30:06;24.77;;;15.07;;
1779;SDS011;10019;46.670;14.260;2023-03-01T12:32:50;26.33;;;15.40;;
1779;SDS011;10019;46.670;14.260;2023-03-01T12:35:42;23.37;;;14.73;;
1779;SDS011;10019;46.670;14.260;2023-03-01T12:38:31;19.40;;;13.60;;
1779;SDS011;10019;46.670;14.260;2023-03-01T12:41:27;26.00;;;14.23;;
1779;SDS011;10019;46.670;14.260;2023-03-01T12:44:07;23.87;;;14.70;;
1779;SDS011;10019;46.670;14.260;2023-03-01T12:46:49;20.43;;;13.03;;
1779;SDS011;10019;46.670;14.260;2023-03-01T12:49:25;20.60;;;14.43;;
1779;SDS011;10019;46.670;14.260;2023-03-01T12:52:02;25.07;;;14.00;;
1779;SDS011;10019;46.670;14.260;2023-03-01T12:54:41;21.70;;;14.50;;
1779;SDS011;10019;46.670;14.260;2023-03-01T12:57:15;23.73;;;14.30;;
1779;SDS011;10019;46.670;14.260;2023-03-01T12:59:51;27.00;;;17.07;;
1779;SDS011;10019;46.670;14.260;2023-03-01T13:02:38;21.67;;;14.20;;
1779;SDS011;10019;46.670;14.260;2023-03-01T13:05:20;25.47;;;15.00;;
1779;SDS011;10019;46.670;14.260;2023-03-01T13:08:01;22.57;;;14.30;;
1779;SDS011;10019;46.670;14.260;2023-03-01T13:10:40;24.07;;;14.77;;
1779;SDS011;10019;46.670;14.260;2023-03-01T13:13:19;24.70;;;14.67;;
1779;SDS011;10019;46.670;14.260;2023-03-01T13:15:52;25.13;;;15.73;;
1779;SDS011;10019;46.670;14.260;2023-03-01T13:18:28;21.53;;;13.73;;
1779;SDS011;10019;46.670;14.260;2023-03-01T13:21:02;22.43;;;13.97;;
1779;SDS011;10019;46.670;14.260;2023-03-01T13:23:37;25.30;;;14.10;;
1779;SDS011;10019;46.670;14.260;2023-03-01T13:26:11;24.20;;;14.33;;
1779;SDS011;10019;46.670;14.260;2023-03-01T13:28:54;26.47;;;15.47;;
1779;SDS011;10019;46.670;14.260;2023-03-01T13:34:40;26.70;;;15.27;;
1779;SDS011;10019;46.670;14.260;2023-03-01T13:37:19;38.10;;;16.80;;
1779;SDS011;10019;46.670;14.260;2023-03-01T13:39:54;29.43;;;18.27;;
1779;SDS011;10019;46.670;14.260;2023-03-01T13:42:31;21.77;;;14.70;;
1779;SDS011;10019;46.670;14.260;2023-03-01T13:45:14;28.80;;;16.67;;
1779;SDS011;10019;46.670;14.260;2023-03-01T13:47:49;23.47;;;14.53;;
1779;SDS011;10019;46.670;14.260;2023-03-01T13:50:25;27.50;;;16.17;;
1779;SDS011;10019;46.670;14.260;2023-03-01T13:53:02;25.60;;;15.77;;
1779;SDS011;10019;46.670;14.260;2023-03-01T13:55:37;24.07;;;15.00;;
1779;SDS011;10019;46.670;14.260;2023-03-01T13:58:14;24.47;;;15.40;;
1779;SDS011;10019;46.670;14.260;2023-03-01T14:00:54;22.17;;;14.80;;
1779;SDS011;10019;46.670;14.260;2023-03-01T14:03:27;23.53;;;14.57;;
1779;SDS011;10019;46.670;14.260;2023-03-01T14:06:02;22.50;;;13.47;;
1779;SDS011;10019;46.670;14.260;2023-03-01T14:08:37;25.30;;;15.43;;
1779;SDS011;10019;46.670;14.260;2023-03-01T14:17:05;23.47;;;14.27;;
1779;SDS011;10019;46.670;14.260;2023-03-01T14:20:00;20.00;;;12.90;;
1779;SDS011;10019;46.670;14.260;2023-03-01T14:22:34;20.97;;;13.70;;
1779;SDS011;10019;46.670;14.260;2023-03-01T14:25:16;22.03;;;14.50;;
1779;SDS011;10019;46.670;14.260;2023-03-01T14:27:54;25.00;;;14.73;;
1779;SDS011;10019;46.670;14.260;2023-03-01T14:30:27;33.60;;;20.23;;
1779;SDS011;10019;46.670;14.260;2023-03-01T14:33:03;26.17;;;15.30;;
1779;SDS011;10019;46.670;14.260;2023-03-01T14:35:36;20.27;;;14.10;;
1779;SDS011;10019;46.670;14.260;2023-03-01T14:38:19;24.87;;;15.47;;
1779;SDS011;10019;46.670;14.260;2023-03-01T14:40:52;20.13;;;12.77;;
1779;SDS011;10019;46.670;14.260;2023-03-01T14:43:30;25.03;;;14.23;;
1779;SDS011;10019;46.670;14.260;2023-03-01T14:46:02;25.20;;;15.73;;
1779;SDS011;10019;46.670;14.260;2023-03-01T14:48:33;23.00;;;13.03;;
1779;SDS011;10019;46.670;14.260;2023-03-01T14:51:05;21.67;;;14.90;;
1779;SDS011;10019;46.670;14.260;2023-03-01T14:53:37;25.03;;;12.90;;
1779;SDS011;10019;46.670;14.260;2023-03-01T14:56:12;23.43;;;13.90;;
1779;SDS011;10019;46.670;14.260;2023-03-01T14:58:46;22.13;;;14.37;;
1779;SDS011;10019;46.670;14.260;2023-03-01T15:01:22;21.60;;;14.20;;
1779;SDS011;10019;46.670;14.260;2023-03-01T15:03:54;21.93;;;13.43;;
1779;SDS011;10019;46.670;14.260;2023-03-01T15:06:26;24.10;;;13.67;;
1779;SDS011;10019;46.670;14.260;2023-03-01T15:08:59;19.30;;;12.70;;
1779;SDS011;10019;46.670;14.260;2023-03-01T15:11:32;20.67;;;13.40;;
1779;SDS011;10019;46.670;14.260;2023-03-01T15:17:00;29.33;;;13.67;;
1779;SDS011;10019;46.670;14.260;2023-03-01T15:19:32;19.67;;;13.03;;
1779;SDS011;10019;46.670;14.260;2023-03-01T15:22:04;23.70;;;14.20;;
1779;SDS011;10019;46.670;14.260;2023-03-01T15:24:45;22.73;;;12.90;;
1779;SDS011;10019;46.670;14.260;2023-03-01T15:27:18;21.20;;;13.00;;